Industrial Ranger — D5AG8 — position and weather

sailwx.info

Track history (hours):
 
Tides and Currents Weather Stations Pressure Air Temp Water Temp Dewpoint Dewpoint Depression Visibility Wind Speed Wind Dir Waves Ship Positions

Industrial Ranger

Last reported at 2018-Jun-15 00:34 UTC. Time now 2018-Jun-23 13:54 UTC.
Position N 36°46' W 006°45'.
Warning: this ship's position is 8 days out of date.

Length 135 m; draft 6.3 m.

Type: Ship. MMSI: 636092311.

Date/timePositionNaut miles runAvg speedWind from/ knotsBaromVisibWave heightAir tempDewpointWater temp
2018-Jun-15 00:34N 36°46' W 006°45'19 4.0
2018-Jun-14 19:52N 36°37' W 007°05'1 3.5
2018-Jun-14 19:30N 36°37' W 007°07'6 3.8
2018-Jun-14 17:48N 36°35' W 007°14'1 4.0
2018-Jun-14 17:28N 36°34' W 007°16'2 3.7
2018-Jun-14 16:54N 36°34' W 007°19'2 4.4
2018-Jun-14 16:23N 36°33' W 007°21'3 5.0
2018-Jun-14 15:48N 36°32' W 007°25'2 5.1
2018-Jun-14 15:25N 36°31' W 007°27'2 4.8
2018-Jun-14 15:00N 36°30' W 007°29'3 4.9
2018-Jun-14 14:29N 36°29' W 007°32'2 4.9
2018-Jun-14 13:58N 36°28' W 007°35'2 4.8
2018-Jun-14 13:29N 36°27' W 007°37'2 4.6
2018-Jun-14 13:00N 36°26' W 007°40'5 4.8
2018-Jun-14 12:01N 36°25' W 007°46'0 4.9
2018-Jun-14 11:59N 36°25' W 007°46'2 4.9
2018-Jun-14 11:30N 36°24' W 007°48'2 4.7
2018-Jun-14 11:00N 36°23' W 007°51'2 4.6
2018-Jun-14 10:29N 36°22' W 007°54'3 4.5
2018-Jun-14 09:52N 36°22' W 007°57'2 4.3
2018-Jun-14 09:25N 36°21' W 007°60'2 4.2
2018-Jun-14 09:01N 36°20' W 008°02'2 4.2
2018-Jun-14 08:26N 36°20' W 008°05'4 4.2
2018-Jun-14 07:33N 36°18' W 008°09'0 4.3
2018-Jun-14 07:30N 36°18' W 008°09'2 4.3
2018-Jun-14 06:58N 36°18' W 008°12'2 4.3
2018-Jun-14 06:31N 36°17' W 008°14'3 4.2
2018-Jun-14 05:54N 36°16' W 008°17'2 4.1
2018-Jun-14 05:28N 36°16' W 008°19'2 4.0
2018-Jun-14 05:00N 36°15' W 008°22'4 3.9
2018-Jun-14 03:55N 36°14' W 008°27'3 3.7
2018-Jun-14 03:11N 36°13' W 008°30'2 3.6
2018-Jun-14 02:39N 36°13' W 008°32'1 3.4
2018-Jun-14 02:30N 36°13' W 008°33'2 3.3
2018-Jun-14 01:59N 36°13' W 008°35'2 3.3
2018-Jun-14 01:28N 36°12' W 008°37'2 3.3
2018-Jun-14 01:00N 36°12' W 008°39'2 3.3
2018-Jun-14 00:30N 36°12' W 008°41'5 3.2
2018-Jun-13 23:01N 36°12' W 008°47'0 3.4
2018-Jun-13 23:01N 36°12' W 008°47'14 3.7
2018-Jun-13 19:11N 36°14' W 009°05'1 4.1
2018-Jun-13 18:57N 36°14' W 009°06'2 4.1
2018-Jun-13 18:23N 36°14' W 009°09'2 4.1
2018-Jun-13 17:47N 36°14' W 009°12'43 3.6
2018-Jun-13 05:44N 36°21' W 010°04'1 3.2
2018-Jun-13 05:23N 36°21' W 010°06'  
2018-Jun-07 13:30N 40°21' W 022°44'15 5.8
2018-Jun-07 10:53N 40°26' W 023°03'2 6.0
2018-Jun-07 10:30N 40°26' W 023°06'6 6.0
2018-Jun-07 09:28N 40°28' W 023°13'39 5.9
2018-Jun-07 02:55N 40°40' W 024°02'3 5.9
2018-Jun-07 02:29N 40°41' W 024°05'5 5.9
2018-Jun-07 01:42N 40°43' W 024°10'243 5.6
2018-Jun-05 06:36N 41°57' W 029°19'1 4.1
2018-Jun-05 06:24N 41°57' W 029°20'3 4.4
2018-Jun-05 05:45N 41°57' W 029°24'1 4.3
2018-Jun-05 05:29N 41°57' W 029°26'  
Track history (hours):
 
Tides and Currents Weather Stations Pressure Air Temp Water Temp Dewpoint Dewpoint Depression Visibility Wind Speed Wind Dir Waves Ship Positions

Industrial Ranger

Last reported at 2018-Jun-15 00:34 UTC. Time now 2018-Jun-23 13:54 UTC.
Position N 36°46' W 006°45'.
Warning: this ship's position is 8 days out of date.

Length 135 m; draft 6.3 m.

Type: Ship. MMSI: 636092311.

Date/timePositionNaut miles runAvg speedWind from/ knotsBaromVisibWave heightAir tempDewpointWater temp
2018-Jun-15 00:34N 36°46' W 006°45'19 4.0
2018-Jun-14 19:52N 36°37' W 007°05'1 3.5
2018-Jun-14 19:30N 36°37' W 007°07'6 3.8
2018-Jun-14 17:48N 36°35' W 007°14'1 4.0
2018-Jun-14 17:28N 36°34' W 007°16'2 3.7
2018-Jun-14 16:54N 36°34' W 007°19'2 4.4
2018-Jun-14 16:23N 36°33' W 007°21'3 5.0
2018-Jun-14 15:48N 36°32' W 007°25'2 5.1
2018-Jun-14 15:25N 36°31' W 007°27'2 4.8
2018-Jun-14 15:00N 36°30' W 007°29'3 4.9
2018-Jun-14 14:29N 36°29' W 007°32'2 4.9
2018-Jun-14 13:58N 36°28' W 007°35'2 4.8
2018-Jun-14 13:29N 36°27' W 007°37'2 4.6
2018-Jun-14 13:00N 36°26' W 007°40'5 4.8
2018-Jun-14 12:01N 36°25' W 007°46'0 4.9
2018-Jun-14 11:59N 36°25' W 007°46'2 4.9
2018-Jun-14 11:30N 36°24' W 007°48'2 4.7
2018-Jun-14 11:00N 36°23' W 007°51'2 4.6
2018-Jun-14 10:29N 36°22' W 007°54'3 4.5
2018-Jun-14 09:52N 36°22' W 007°57'2 4.3
2018-Jun-14 09:25N 36°21' W 007°60'2 4.2
2018-Jun-14 09:01N 36°20' W 008°02'2 4.2
2018-Jun-14 08:26N 36°20' W 008°05'4 4.2
2018-Jun-14 07:33N 36°18' W 008°09'0 4.3
2018-Jun-14 07:30N 36°18' W 008°09'2 4.3
2018-Jun-14 06:58N 36°18' W 008°12'2 4.3
2018-Jun-14 06:31N 36°17' W 008°14'3 4.2
2018-Jun-14 05:54N 36°16' W 008°17'2 4.1
2018-Jun-14 05:28N 36°16' W 008°19'2 4.0
2018-Jun-14 05:00N 36°15' W 008°22'4 3.9
2018-Jun-14 03:55N 36°14' W 008°27'3 3.7
2018-Jun-14 03:11N 36°13' W 008°30'2 3.6
2018-Jun-14 02:39N 36°13' W 008°32'1 3.4
2018-Jun-14 02:30N 36°13' W 008°33'2 3.3
2018-Jun-14 01:59N 36°13' W 008°35'2 3.3
2018-Jun-14 01:28N 36°12' W 008°37'2 3.3
2018-Jun-14 01:00N 36°12' W 008°39'2 3.3
2018-Jun-14 00:30N 36°12' W 008°41'5 3.2
2018-Jun-13 23:01N 36°12' W 008°47'0 3.4
2018-Jun-13 23:01N 36°12' W 008°47'14 3.7
2018-Jun-13 19:11N 36°14' W 009°05'1 4.1
2018-Jun-13 18:57N 36°14' W 009°06'2 4.1
2018-Jun-13 18:23N 36°14' W 009°09'2 4.1
2018-Jun-13 17:47N 36°14' W 009°12'43 3.6
2018-Jun-13 05:44N 36°21' W 010°04'1 3.2
2018-Jun-13 05:23N 36°21' W 010°06'  
2018-Jun-07 13:30N 40°21' W 022°44'15 5.8
2018-Jun-07 10:53N 40°26' W 023°03'2 6.0
2018-Jun-07 10:30N 40°26' W 023°06'6 6.0
2018-Jun-07 09:28N 40°28' W 023°13'39 5.9
2018-Jun-07 02:55N 40°40' W 024°02'3 5.9
2018-Jun-07 02:29N 40°41' W 024°05'5 5.9
2018-Jun-07 01:42N 40°43' W 024°10'243 5.6
2018-Jun-05 06:36N 41°57' W 029°19'1 4.1
2018-Jun-05 06:24N 41°57' W 029°20'3 4.4
2018-Jun-05 05:45N 41°57' W 029°24'1 4.3
2018-Jun-05 05:29N 41°57' W 029°26'  

Dump ship's entire track history